createdAt,value
2023-06-29T00:01:59.659Z,20.83
2023-06-29T00:04:27.024Z,19.02
2023-06-29T00:06:55.469Z,18.80
2023-06-29T00:09:23.360Z,20.42
2023-06-29T00:11:50.286Z,20.48
2023-06-29T00:14:17.232Z,19.50
2023-06-29T00:16:44.089Z,22.50
2023-06-29T00:19:12.847Z,19.33
2023-06-29T00:21:40.215Z,18.63
2023-06-29T00:24:07.468Z,19.65
2023-06-29T00:26:34.383Z,17.58
2023-06-29T00:29:01.322Z,19.63
2023-06-29T00:31:28.451Z,19.80
2023-06-29T00:33:55.302Z,20.00
2023-06-29T00:36:22.402Z,20.73
2023-06-29T00:38:49.445Z,19.15
2023-06-29T00:41:17.196Z,18.85
2023-06-29T00:43:46.752Z,19.77
2023-06-29T00:46:14.352Z,19.70
2023-06-29T00:48:41.173Z,19.48
2023-06-29T00:51:08.045Z,19.98
2023-06-29T00:53:34.941Z,17.55
2023-06-29T00:56:03.087Z,18.00
2023-06-29T00:58:30.413Z,18.87
2023-06-29T01:00:58.693Z,19.30
2023-06-29T01:03:26.683Z,17.67
2023-06-29T01:05:56.915Z,18.80
2023-06-29T01:08:37.055Z,17.15
2023-06-29T01:11:07.493Z,18.90
2023-06-29T01:16:04.058Z,19.95
2023-06-29T01:18:31.918Z,16.10
2023-06-29T01:20:59.940Z,19.38
2023-06-29T01:23:29.041Z,19.88
2023-06-29T01:28:25.929Z,17.65
2023-06-29T01:30:52.775Z,18.55
2023-06-29T01:33:23.684Z,17.30
2023-06-29T01:35:54.617Z,16.25
2023-06-29T01:38:35.068Z,16.48
2023-06-29T01:41:02.642Z,19.48
2023-06-29T01:45:58.199Z,17.35
2023-06-29T01:48:25.845Z,17.85
2023-06-29T01:50:52.798Z,19.42
2023-06-29T01:53:19.638Z,19.38
2023-06-29T01:55:46.533Z,16.35
2023-06-29T01:58:13.388Z,15.13
2023-06-29T02:00:40.914Z,17.85
2023-06-29T02:03:07.836Z,17.45
2023-06-29T02:05:34.676Z,18.40
2023-06-29T02:08:01.561Z,18.48
2023-06-29T02:10:28.363Z,16.10
2023-06-29T02:12:55.197Z,17.60
2023-06-29T02:15:22.682Z,18.42
2023-06-29T02:17:49.538Z,19.02
2023-06-29T02:20:18.426Z,19.27
2023-06-29T02:22:45.202Z,17.67
2023-06-29T02:25:14.818Z,19.45
2023-06-29T02:27:41.805Z,17.05
2023-06-29T02:30:09.326Z,20.50
2023-06-29T02:32:36.818Z,19.03
2023-06-29T02:35:04.469Z,18.48
2023-06-29T02:37:32.110Z,18.52
2023-06-29T02:39:58.974Z,18.50
2023-06-29T02:42:25.820Z,19.48
2023-06-29T02:44:52.579Z,20.30
2023-06-29T02:47:19.384Z,18.42
2023-06-29T02:49:46.535Z,18.92
2023-06-29T02:54:42.917Z,18.83
2023-06-29T02:57:09.884Z,19.60
2023-06-29T02:59:37.025Z,20.92
2023-06-29T03:02:03.987Z,19.02
2023-06-29T03:04:30.912Z,19.48
2023-06-29T03:06:57.753Z,17.52
2023-06-29T03:09:26.088Z,20.33
2023-06-29T03:11:52.865Z,19.25
2023-06-29T03:14:19.752Z,18.85
2023-06-29T03:16:46.597Z,18.20
2023-06-29T03:19:13.370Z,17.33
2023-06-29T03:21:40.132Z,19.08
2023-06-29T03:24:06.958Z,19.25
2023-06-29T03:26:33.744Z,19.27
2023-06-29T03:29:00.515Z,17.65
2023-06-29T03:31:27.391Z,19.67
2023-06-29T03:33:54.188Z,20.58
2023-06-29T03:36:20.936Z,17.95
2023-06-29T03:38:47.733Z,19.80
2023-06-29T03:41:14.465Z,19.08
2023-06-29T03:43:41.255Z,17.70
2023-06-29T03:46:08.074Z,17.45
2023-06-29T03:48:34.981Z,20.85
2023-06-29T03:51:01.910Z,17.23
2023-06-29T03:53:28.956Z,18.98
2023-06-29T03:55:55.821Z,17.98
2023-06-29T03:58:22.633Z,20.20
2023-06-29T04:00:49.415Z,17.27
2023-06-29T04:03:16.296Z,21.40
2023-06-29T04:05:43.387Z,18.58
2023-06-29T04:08:10.533Z,17.88
2023-06-29T04:10:37.446Z,20.63
2023-06-29T04:13:04.575Z,18.08
2023-06-29T04:15:31.527Z,18.95
2023-06-29T04:17:58.416Z,17.45
2023-06-29T04:20:25.353Z,19.90
2023-06-29T04:22:52.201Z,17.92
2023-06-29T04:25:19.331Z,17.08
2023-06-29T04:27:46.127Z,17.02
2023-06-29T04:30:13.949Z,17.45
2023-06-29T04:32:40.882Z,18.45
2023-06-29T04:35:10.742Z,19.70
2023-06-29T04:37:41.828Z,17.65
2023-06-29T04:40:10.699Z,23.35
2023-06-29T04:42:47.358Z,19.23
2023-06-29T04:45:20.701Z,20.50
2023-06-29T04:47:50.722Z,16.67
2023-06-29T04:50:25.961Z,17.95
2023-06-29T04:52:57.033Z,19.33
2023-06-29T04:55:24.180Z,17.60
2023-06-29T04:57:50.960Z,17.15
2023-06-29T05:00:18.209Z,18.20
2023-06-29T05:02:45.118Z,18.95
2023-06-29T05:05:12.739Z,17.23
2023-06-29T05:07:39.788Z,24.05
2023-06-29T05:10:07.029Z,17.88
2023-06-29T05:12:34.050Z,19.80
2023-06-29T05:15:00.871Z,17.98
2023-06-29T05:17:27.719Z,20.08
2023-06-29T05:19:54.528Z,21.55
2023-06-29T05:22:21.278Z,20.00
2023-06-29T05:24:49.047Z,19.60
2023-06-29T05:27:15.865Z,21.73
2023-06-29T05:29:42.632Z,21.83
2023-06-29T05:32:09.811Z,21.50
2023-06-29T05:34:36.782Z,21.55
2023-06-29T05:37:03.849Z,21.95
2023-06-29T05:39:30.717Z,20.60
2023-06-29T05:41:57.499Z,23.73
2023-06-29T05:44:24.244Z,18.83
2023-06-29T05:46:51.014Z,22.42
2023-06-29T05:49:17.811Z,20.98
2023-06-29T05:51:44.649Z,20.70
2023-06-29T05:54:11.476Z,21.45
2023-06-29T05:56:38.645Z,25.35
2023-06-29T05:59:05.524Z,21.85
2023-06-29T06:01:32.548Z,21.35
2023-06-29T06:03:59.626Z,20.45
2023-06-29T06:06:26.520Z,21.50
2023-06-29T06:08:53.337Z,20.77
2023-06-29T06:11:20.096Z,18.77
2023-06-29T06:13:46.903Z,22.30
2023-06-29T06:16:13.723Z,22.20
2023-06-29T06:18:40.508Z,23.08
2023-06-29T06:21:07.461Z,21.15
2023-06-29T06:23:34.648Z,23.17
2023-06-29T06:26:02.142Z,21.77
2023-06-29T06:28:29.230Z,23.10
2023-06-29T06:30:56.202Z,34.45
2023-06-29T06:33:23.063Z,38.75
2023-06-29T06:35:50.226Z,42.70
2023-06-29T06:38:17.148Z,38.88
2023-06-29T06:40:44.098Z,41.03
2023-06-29T06:43:11.096Z,37.72
2023-06-29T06:45:38.015Z,41.53
2023-06-29T06:48:05.394Z,35.03
2023-06-29T06:50:32.159Z,37.70
2023-06-29T06:52:58.939Z,41.83
2023-06-29T06:55:25.751Z,33.88
2023-06-29T06:57:52.614Z,36.50
2023-06-29T07:00:19.672Z,41.25
2023-06-29T07:02:46.862Z,37.95
2023-06-29T07:05:13.717Z,42.38
2023-06-29T07:07:40.613Z,38.22
2023-06-29T07:10:07.839Z,36.33
2023-06-29T07:12:34.608Z,35.53
2023-06-29T07:15:01.380Z,35.63
2023-06-29T07:17:28.880Z,34.25
2023-06-29T07:24:55.150Z,35.25
2023-06-29T07:27:21.978Z,36.08
2023-06-29T07:29:48.841Z,37.30
2023-06-29T07:32:15.615Z,35.83
2023-06-29T07:34:42.477Z,39.65
2023-06-29T07:37:09.290Z,33.47
2023-06-29T07:39:36.875Z,37.80
2023-06-29T07:42:03.910Z,34.22
2023-06-29T07:44:30.735Z,39.72
2023-06-29T07:46:57.645Z,36.60
2023-06-29T07:49:24.530Z,40.90
2023-06-29T07:51:51.345Z,38.72
2023-06-29T07:54:19.417Z,33.13
2023-06-29T07:59:16.196Z,36.67
2023-06-29T08:01:43.065Z,35.30
2023-06-29T08:04:10.563Z,33.38
2023-06-29T08:06:50.031Z,33.97
2023-06-29T08:09:18.465Z,38.97
2023-06-29T08:11:45.372Z,28.83
2023-06-29T08:14:12.137Z,35.40
2023-06-29T08:16:39.011Z,33.50
2023-06-29T08:19:05.902Z,36.38
2023-06-29T08:21:32.767Z,30.70
2023-06-29T08:23:59.703Z,31.40
2023-06-29T08:26:26.648Z,33.03
2023-06-29T08:28:53.513Z,28.52
2023-06-29T08:31:20.612Z,31.13
2023-06-29T08:33:47.793Z,29.30
2023-06-29T08:36:14.673Z,30.75
2023-06-29T08:38:44.388Z,30.00
2023-06-29T08:41:11.208Z,29.35
2023-06-29T08:43:37.992Z,35.03
2023-06-29T08:46:04.915Z,29.27
2023-06-29T08:48:33.216Z,33.33
2023-06-29T08:51:11.346Z,28.83
2023-06-29T08:53:40.893Z,28.05
2023-06-29T08:56:08.143Z,27.38
2023-06-29T08:58:35.055Z,25.83
2023-06-29T09:01:02.726Z,26.13
2023-06-29T09:03:30.089Z,31.65
2023-06-29T09:05:57.720Z,24.45
2023-06-29T09:08:27.721Z,24.00
2023-06-29T09:10:56.114Z,25.55
2023-06-29T09:13:29.232Z,24.90
2023-06-29T09:15:56.181Z,27.20
2023-06-29T09:18:24.633Z,24.08
2023-06-29T09:20:56.064Z,23.08
2023-06-29T09:23:30.016Z,21.48
2023-06-29T09:25:58.086Z,25.73
2023-06-29T09:28:25.472Z,24.25
2023-06-29T09:30:52.383Z,20.73
2023-06-29T09:33:20.370Z,22.48
2023-06-29T09:35:50.929Z,21.08
2023-06-29T09:38:18.415Z,22.15
2023-06-29T09:40:49.797Z,25.05
2023-06-29T09:43:21.937Z,20.67
2023-06-29T09:45:49.431Z,22.38
2023-06-29T09:50:53.703Z,20.35
2023-06-29T09:53:34.111Z,21.52
2023-06-29T09:56:03.230Z,21.33
2023-06-29T09:58:31.241Z,22.80
2023-06-29T10:01:00.873Z,21.63
2023-06-29T10:03:28.662Z,19.77
2023-06-29T10:05:58.533Z,19.90
2023-06-29T10:08:28.215Z,20.70
2023-06-29T10:11:03.510Z,22.48
2023-06-29T10:13:34.501Z,24.25
2023-06-29T10:16:03.925Z,30.42
2023-06-29T10:18:33.604Z,29.80
2023-06-29T10:21:00.471Z,25.73
2023-06-29T10:23:27.352Z,29.48
2023-06-29T10:25:54.433Z,25.48
2023-06-29T10:28:21.791Z,26.48
2023-06-29T10:30:49.587Z,23.38
2023-06-29T10:33:26.127Z,29.58
2023-06-29T10:36:02.672Z,24.90
2023-06-29T10:38:36.340Z,28.35
2023-06-29T10:41:07.303Z,27.13
2023-06-29T10:43:59.831Z,24.45
2023-06-29T10:46:45.780Z,31.33
2023-06-29T10:49:31.034Z,24.90
2023-06-29T10:52:05.328Z,27.38
2023-06-29T10:54:32.357Z,25.00
2023-06-29T10:57:01.233Z,27.45
2023-06-29T11:01:59.803Z,23.25
2023-06-29T11:04:28.454Z,25.63
2023-06-29T11:06:55.445Z,24.13
2023-06-29T11:09:22.299Z,25.65
2023-06-29T11:11:49.963Z,27.35
2023-06-29T11:14:17.906Z,25.70
2023-06-29T11:16:44.728Z,24.47
2023-06-29T11:19:13.612Z,24.13
2023-06-29T11:21:42.045Z,30.05
2023-06-29T11:24:10.743Z,23.30
2023-06-29T11:26:37.758Z,22.27
2023-06-29T11:29:09.193Z,22.27
2023-06-29T11:31:36.145Z,24.73
2023-06-29T11:34:03.287Z,22.05
2023-06-29T11:36:31.610Z,30.40
2023-06-29T11:41:32.703Z,26.13
2023-06-29T11:44:01.592Z,23.42
2023-06-29T11:46:33.393Z,28.02
2023-06-29T11:49:01.325Z,24.20
2023-06-29T11:51:29.675Z,24.33
2023-06-29T11:53:57.280Z,24.40
2023-06-29T11:56:29.938Z,25.63
2023-06-29T11:58:56.737Z,26.20
2023-06-29T12:01:23.541Z,23.58
2023-06-29T12:03:50.410Z,26.23
2023-06-29T12:06:17.290Z,26.30
2023-06-29T12:08:45.342Z,24.95
2023-06-29T12:11:16.688Z,23.23
2023-06-29T12:13:47.304Z,24.40
2023-06-29T12:18:45.091Z,23.27
2023-06-29T12:21:12.146Z,21.42
2023-06-29T12:23:38.996Z,21.80
2023-06-29T12:26:05.906Z,23.83
2023-06-29T12:28:33.667Z,21.25
2023-06-29T12:31:04.272Z,23.40
2023-06-29T12:33:31.099Z,22.67
2023-06-29T12:35:59.177Z,24.20
2023-06-29T12:38:26.085Z,22.77
2023-06-29T12:40:52.972Z,21.13
2023-06-29T12:43:19.765Z,20.70
2023-06-29T12:45:47.483Z,22.75
2023-06-29T12:48:14.417Z,20.40
2023-06-29T12:50:41.233Z,22.02
2023-06-29T12:53:08.029Z,21.20
2023-06-29T12:55:34.822Z,22.42
2023-06-29T12:58:01.604Z,21.20
2023-06-29T13:00:28.478Z,20.08
2023-06-29T13:02:55.486Z,21.67
2023-06-29T13:05:22.448Z,22.88
2023-06-29T13:07:49.293Z,20.40
2023-06-29T13:10:16.196Z,19.95
2023-06-29T13:12:43.179Z,21.60
2023-06-29T13:15:11.329Z,22.08
2023-06-29T13:17:38.342Z,20.42
2023-06-29T13:20:06.141Z,21.42
2023-06-29T13:22:35.088Z,21.37
2023-06-29T13:25:02.587Z,21.17
2023-06-29T13:27:29.373Z,20.98
2023-06-29T13:29:56.131Z,26.08
2023-06-29T13:32:22.962Z,23.63
2023-06-29T13:34:49.767Z,24.08
2023-06-29T13:37:16.789Z,23.50
2023-06-29T13:39:46.052Z,21.00
2023-06-29T13:42:16.407Z,23.67
2023-06-29T13:44:44.233Z,23.35
2023-06-29T13:47:17.069Z,21.17
2023-06-29T13:49:43.910Z,23.88
2023-06-29T13:52:10.788Z,25.00
2023-06-29T13:54:37.553Z,22.00
2023-06-29T13:57:06.227Z,24.23
2023-06-29T13:59:33.878Z,24.15
2023-06-29T14:02:02.240Z,22.02
2023-06-29T14:04:29.030Z,26.52
2023-06-29T14:06:55.856Z,22.17
2023-06-29T14:09:22.865Z,25.95
2023-06-29T14:11:49.760Z,24.60
2023-06-29T14:14:16.555Z,24.00
2023-06-29T14:16:44.485Z,26.23
2023-06-29T14:19:11.239Z,24.08
2023-06-29T14:21:38.084Z,23.77
2023-06-29T14:24:04.941Z,28.40
2023-06-29T14:26:31.762Z,28.95
2023-06-29T14:28:58.550Z,30.80
2023-06-29T14:31:25.330Z,27.38
2023-06-29T14:33:52.165Z,27.95
2023-06-29T14:36:19.044Z,29.92
2023-06-29T14:38:46.598Z,30.67
2023-06-29T14:41:13.442Z,31.33
2023-06-29T14:43:40.240Z,28.55
2023-06-29T14:46:07.099Z,27.63
2023-06-29T14:48:33.920Z,31.00
2023-06-29T14:51:00.736Z,30.83
2023-06-29T14:53:27.584Z,27.13
2023-06-29T14:56:11.294Z,25.70
2023-06-29T14:58:38.375Z,30.50
2023-06-29T15:01:05.318Z,28.70
2023-06-29T15:03:32.547Z,25.83
2023-06-29T15:05:59.450Z,26.20
2023-06-29T15:08:28.190Z,25.35
2023-06-29T15:13:21.804Z,24.60
2023-06-29T15:15:49.033Z,25.45
2023-06-29T15:18:16.151Z,23.55
2023-06-29T15:20:43.072Z,24.20
2023-06-29T15:23:10.087Z,22.48
2023-06-29T15:25:39.138Z,21.63
2023-06-29T15:28:06.976Z,25.70
2023-06-29T15:30:47.300Z,22.55
2023-06-29T15:33:18.522Z,34.20
2023-06-29T15:35:45.490Z,28.17
2023-06-29T15:38:12.546Z,30.92
2023-06-29T15:40:39.937Z,29.08
2023-06-29T15:43:06.861Z,26.85
2023-06-29T15:45:34.540Z,29.83
2023-06-29T15:48:01.429Z,28.00
2023-06-29T15:50:28.484Z,26.40
2023-06-29T15:52:55.327Z,30.35
2023-06-29T15:55:22.159Z,28.65
2023-06-29T15:57:49.070Z,31.80
2023-06-29T16:00:16.184Z,29.30
2023-06-29T16:02:42.949Z,30.77
2023-06-29T16:05:09.990Z,29.08
2023-06-29T16:07:38.432Z,26.60
2023-06-29T16:10:05.871Z,25.23
2023-06-29T16:12:32.815Z,27.73
2023-06-29T16:15:00.543Z,29.50
2023-06-29T16:17:29.414Z,28.40
2023-06-29T16:19:56.778Z,25.92
2023-06-29T16:22:24.637Z,26.15
2023-06-29T16:24:51.492Z,30.50
2023-06-29T16:27:18.302Z,28.08
2023-06-29T16:29:45.185Z,25.77
2023-06-29T16:32:12.104Z,31.98
2023-06-29T16:34:39.014Z,26.35
2023-06-29T16:37:07.845Z,28.20
2023-06-29T16:39:36.184Z,27.77
2023-06-29T16:42:03.277Z,27.85
2023-06-29T16:44:30.039Z,164.65
2023-06-29T16:46:56.807Z,52.97
2023-06-29T16:49:23.663Z,54.80
2023-06-29T16:51:50.500Z,32.03
2023-06-29T16:54:17.325Z,27.55
2023-06-29T16:56:44.644Z,27.08
2023-06-29T16:59:11.499Z,72.90
2023-06-29T17:01:38.286Z,152.55
2023-06-29T17:04:05.264Z,69.63
2023-06-29T17:06:32.043Z,66.82
2023-06-29T17:08:58.854Z,44.67
2023-06-29T17:11:26.697Z,33.85
2023-06-29T17:13:53.467Z,30.25
2023-06-29T17:16:21.243Z,28.15
2023-06-29T17:18:48.121Z,30.33
2023-06-29T17:21:15.739Z,32.67
2023-06-29T17:23:42.803Z,32.85
2023-06-29T17:26:10.600Z,30.08
2023-06-29T17:28:37.422Z,22.52
2023-06-29T17:31:04.449Z,23.77
2023-06-29T17:33:41.323Z,22.50
2023-06-29T17:36:16.638Z,18.83
2023-06-29T17:38:43.398Z,24.48
2023-06-29T17:41:10.498Z,22.05
2023-06-29T17:43:39.322Z,18.00
2023-06-29T17:46:06.256Z,18.85
2023-06-29T17:48:33.203Z,15.20
2023-06-29T17:51:15.517Z,14.98
2023-06-29T17:53:44.031Z,13.18
2023-06-29T17:56:13.146Z,12.27
2023-06-29T17:58:39.982Z,13.00
2023-06-29T18:01:06.735Z,9.60
2023-06-29T18:03:34.730Z,9.82
2023-06-29T18:06:02.560Z,11.65
2023-06-29T18:08:29.374Z,9.25
2023-06-29T18:10:56.154Z,8.10
2023-06-29T18:13:22.923Z,8.68
2023-06-29T18:15:50.004Z,10.02
2023-06-29T18:18:16.952Z,8.02
2023-06-29T18:20:43.848Z,7.32
2023-06-29T18:23:10.590Z,8.60
2023-06-29T18:25:37.389Z,9.52
2023-06-29T18:28:04.306Z,10.73
2023-06-29T18:30:31.078Z,11.57
2023-06-29T18:32:57.903Z,9.43
2023-06-29T18:35:24.684Z,8.43
2023-06-29T18:37:51.478Z,8.43
2023-06-29T18:40:18.376Z,7.03
2023-06-29T18:42:45.166Z,9.80
2023-06-29T18:45:11.956Z,10.57
2023-06-29T18:47:38.749Z,5.45
2023-06-29T18:50:07.248Z,7.10
2023-06-29T18:52:34.501Z,7.35
2023-06-29T18:55:01.419Z,5.72
2023-06-29T18:57:28.147Z,7.18
2023-06-29T18:59:54.929Z,7.00
2023-06-29T19:02:21.772Z,4.28
2023-06-29T19:04:48.633Z,4.28
2023-06-29T19:07:17.202Z,3.33
2023-06-29T19:09:44.333Z,3.90
2023-06-29T19:12:11.297Z,4.75
2023-06-29T19:14:39.525Z,3.65
2023-06-29T19:17:06.521Z,4.15
2023-06-29T19:19:34.190Z,4.10
2023-06-29T19:22:01.034Z,2.83
2023-06-29T19:24:27.914Z,4.90
2023-06-29T19:26:54.713Z,2.50
2023-06-29T19:29:21.465Z,5.22
2023-06-29T19:31:48.298Z,4.30
2023-06-29T19:34:15.166Z,2.47
2023-06-29T19:36:42.104Z,3.53
2023-06-29T19:39:08.993Z,7.18
2023-06-29T19:41:36.126Z,4.32
2023-06-29T19:44:03.055Z,2.50
2023-06-29T19:46:29.931Z,2.30
2023-06-29T19:48:56.745Z,3.47
2023-06-29T19:51:23.687Z,4.70
2023-06-29T19:53:50.476Z,4.95
2023-06-29T19:56:17.283Z,3.55
2023-06-29T19:58:44.145Z,3.42
2023-06-29T20:01:10.967Z,2.63
2023-06-29T20:03:37.743Z,4.93
2023-06-29T20:06:04.678Z,3.80
2023-06-29T20:08:31.489Z,6.15
2023-06-29T20:10:58.309Z,6.10
2023-06-29T20:13:25.118Z,2.60
2023-06-29T20:15:52.024Z,5.13
2023-06-29T20:18:18.985Z,3.42
2023-06-29T20:20:45.825Z,5.78
2023-06-29T20:23:12.707Z,4.53
2023-06-29T20:25:39.542Z,4.55
2023-06-29T20:28:06.394Z,3.75
2023-06-29T20:30:33.268Z,4.20
2023-06-29T20:33:00.226Z,4.45
2023-06-29T20:35:27.215Z,2.55
2023-06-29T20:37:54.592Z,4.85
2023-06-29T20:40:21.582Z,5.53
2023-06-29T20:42:48.341Z,4.72
2023-06-29T20:45:15.272Z,3.13
2023-06-29T20:47:42.111Z,3.67
2023-06-29T20:50:09.368Z,5.97
2023-06-29T20:52:36.228Z,3.58
2023-06-29T20:55:03.386Z,3.22
2023-06-29T20:57:30.216Z,3.38
2023-06-29T20:59:57.077Z,3.42
2023-06-29T21:02:24.374Z,3.35
2023-06-29T21:04:51.478Z,2.45
2023-06-29T21:07:19.002Z,2.90
2023-06-29T21:09:46.000Z,4.00
2023-06-29T21:12:13.488Z,3.10
2023-06-29T21:14:40.588Z,5.38
2023-06-29T21:17:07.941Z,2.45
2023-06-29T21:19:35.033Z,3.60
2023-06-29T21:22:02.053Z,2.65
2023-06-29T21:24:29.047Z,2.13
2023-06-29T21:26:55.914Z,2.75
2023-06-29T21:29:40.994Z,5.07
2023-06-29T21:32:13.099Z,4.53
2023-06-29T21:34:40.553Z,3.17
2023-06-29T21:37:08.425Z,3.63
2023-06-29T21:39:35.656Z,3.58
2023-06-29T21:42:02.578Z,4.40
2023-06-29T21:44:29.474Z,4.72
2023-06-29T21:46:56.601Z,3.42
2023-06-29T21:49:23.602Z,2.85
2023-06-29T21:51:50.445Z,4.25
2023-06-29T21:54:17.401Z,4.60
2023-06-29T21:56:45.343Z,5.88
2023-06-29T21:59:12.119Z,5.72
2023-06-29T22:01:38.944Z,3.78
2023-06-29T22:04:05.882Z,3.20
2023-06-29T22:06:32.767Z,3.70
2023-06-29T22:08:59.534Z,2.47
2023-06-29T22:11:29.108Z,2.72
2023-06-29T22:13:56.729Z,4.35
2023-06-29T22:16:24.119Z,4.90
2023-06-29T22:18:54.342Z,3.13
2023-06-29T22:21:22.639Z,3.67
2023-06-29T22:23:53.772Z,3.13
2023-06-29T22:26:21.546Z,4.95
2023-06-29T22:28:48.704Z,3.17
2023-06-29T22:31:18.250Z,4.88
2023-06-29T22:33:46.269Z,3.47
2023-06-29T22:36:14.903Z,2.88
2023-06-29T22:38:42.257Z,3.95
2023-06-29T22:41:09.400Z,4.47
2023-06-29T22:43:36.304Z,4.57
2023-06-29T22:46:03.403Z,2.22
2023-06-29T22:48:30.291Z,4.03
2023-06-29T22:50:57.176Z,3.83
2023-06-29T22:53:24.471Z,3.63
2023-06-29T22:55:51.298Z,5.60
2023-06-29T22:58:28.107Z,2.83
2023-06-29T23:00:56.094Z,2.97
2023-06-29T23:03:23.976Z,3.72
2023-06-29T23:05:50.859Z,4.78
2023-06-29T23:08:17.905Z,2.70
2023-06-29T23:10:47.632Z,4.20
2023-06-29T23:13:17.332Z,3.80
2023-06-29T23:15:45.350Z,4.25
2023-06-29T23:18:13.441Z,3.77
2023-06-29T23:20:44.848Z,4.47
2023-06-29T23:23:13.917Z,8.50
2023-06-29T23:25:42.816Z,5.47
2023-06-29T23:28:09.809Z,4.28
2023-06-29T23:30:36.705Z,4.97
2023-06-29T23:33:03.801Z,3.75
2023-06-29T23:35:30.718Z,3.00
2023-06-29T23:37:57.645Z,5.32
2023-06-29T23:40:26.609Z,3.85
2023-06-29T23:42:53.632Z,5.40
2023-06-29T23:45:20.393Z,4.70
2023-06-29T23:47:48.333Z,5.13
2023-06-29T23:50:15.466Z,2.92
2023-06-29T23:52:43.191Z,4.95
2023-06-29T23:55:12.477Z,4.88
2023-06-29T23:57:40.659Z,5.30
